Time;durP1;ratioP1;P1;durP2;ratioP2;P2;SDS_P1;SDS_P2;PMS_P1;PMS_P2;Temp;Humidity;BMP_temperature;BMP_pressure;BME280_temperature;BME280_humidity;BME280_pressure;Samples;Min_cycle;Max_cycle;Signal;HPM_P1;HPM_P2
2023/12/17 08:55:10;;;;;;;10.37;3.57;;;6.90;99.90;;;;;;4099918;23;20253;-74
2023/12/17 08:57:38;;;;;;;9.10;3.73;;;6.90;99.90;;;;;;4899963;29;20217;-74
2023/12/17 09:00:06;;;;;;;11.10;4.03;;;6.90;99.90;;;;;;4900710;29;20230;-74
2023/12/17 09:02:34;;;;;;;12.27;4.40;;;7.00;99.90;;;;;;4900625;29;20234;-73
2023/12/17 09:05:01;;;;;;;10.33;4.40;;;7.00;99.90;;;;;;4900389;29;20218;-76
2023/12/17 09:07:28;;;;;;;10.57;4.97;;;7.00;99.90;;;;;;4900343;29;20270;-73
2023/12/17 09:09:55;;;;;;;13.73;4.27;;;7.00;99.90;;;;;;4900652;29;20265;-76
2023/12/17 09:12:24;;;;;;;11.17;4.17;;;7.00;99.90;;;;;;4900555;29;20266;-75
2023/12/17 09:14:51;;;;;;;11.43;4.20;;;7.00;99.90;;;;;;4900553;29;20211;-75
2023/12/17 09:17:18;;;;;;;11.20;3.90;;;7.10;99.90;;;;;;4900475;29;20206;-75
2023/12/17 09:19:45;;;;;;;14.53;4.17;;;7.10;99.90;;;;;;4900274;29;20258;-76
2023/12/17 09:22:12;;;;;;;10.03;4.17;;;7.20;99.90;;;;;;4900366;29;20626;-76
2023/12/17 09:24:39;;;;;;;12.40;3.53;;;7.20;99.90;;;;;;4900519;29;20270;-76
2023/12/17 09:27:06;;;;;;;12.13;4.60;;;7.20;99.90;;;;;;4899785;29;20207;-73
2023/12/17 09:29:34;;;;;;;11.93;3.17;;;7.30;99.90;;;;;;4899733;29;20237;-75
2023/12/17 09:32:01;;;;;;;9.33;3.83;;;7.40;99.90;;;;;;4900033;29;20234;-76
2023/12/17 09:34:28;;;;;;;11.37;2.73;;;7.50;99.90;;;;;;4899949;29;20214;-76
2023/12/17 09:36:55;;;;;;;7.97;2.70;;;7.50;99.90;;;;;;4899953;29;20241;-76
2023/12/17 09:39:22;;;;;;;8.53;3.30;;;7.60;99.90;;;;;;4899775;29;20266;-73
2023/12/17 09:41:49;;;;;;;10.20;2.90;;;7.60;99.90;;;;;;4899622;29;20234;-75
2023/12/17 09:44:16;;;;;;;7.23;2.87;;;7.60;99.90;;;;;;4899902;29;20234;-74
2023/12/17 09:46:45;;;;;;;7.50;2.33;;;7.80;99.90;;;;;;4900142;29;20333;-74
2023/12/17 09:49:12;;;;;;;11.40;3.70;;;7.80;99.90;;;;;;4899810;29;20333;-74
2023/12/17 09:51:45;;;;;;;11.03;4.10;;;7.80;99.90;;;;;;4899965;29;20266;-74
2023/12/17 09:54:12;;;;;;;7.07;2.60;;;7.80;99.90;;;;;;4899743;29;20242;-75
2023/12/17 09:56:40;;;;;;;8.97;2.37;;;7.90;99.90;;;;;;4899486;29;20220;-74
2023/12/17 09:59:07;;;;;;;9.90;2.83;;;8.00;99.90;;;;;;4899654;29;20734;-74
2023/12/17 10:01:34;;;;;;;7.73;2.73;;;8.00;99.90;;;;;;4907191;29;20231;-74
2023/12/17 10:04:02;;;;;;;6.93;2.63;;;8.10;99.90;;;;;;4904220;29;20241;-74
2023/12/17 10:06:32;;;;;;;6.27;2.13;;;8.10;99.90;;;;;;4902321;29;20293;-74
2023/12/17 10:08:59;;;;;;;7.30;1.53;;;8.20;99.90;;;;;;4899529;29;20244;-74
2023/12/17 10:11:27;;;;;;;8.17;2.00;;;8.20;99.90;;;;;;4899049;29;20570;-74
2023/12/17 10:13:54;;;;;;;4.30;1.80;;;8.10;99.90;;;;;;4899196;29;20218;-74
2023/12/17 10:16:23;;;;;;;8.40;1.93;;;8.10;99.90;;;;;;4899065;29;20207;-74
2023/12/17 10:18:50;;;;;;;3.93;1.43;;;8.20;99.90;;;;;;4899406;29;20674;-74
2023/12/17 10:21:18;;;;;;;6.17;1.80;;;8.20;99.90;;;;;;4899018;29;20221;-74
2023/12/17 10:23:48;;;;;;;8.27;2.10;;;8.20;99.90;;;;;;4899111;29;20217;-74
2023/12/17 10:26:16;;;;;;;4.00;1.90;;;8.10;99.90;;;;;;4898862;29;20210;-74
2023/12/17 10:28:46;;;;;;;12.73;1.90;;;8.30;99.90;;;;;;4898863;29;20720;-75
2023/12/17 10:31:16;;;;;;;6.33;1.63;;;8.30;99.90;;;;;;4898796;29;20219;-74
2023/12/17 10:33:52;;;;;;;6.73;2.00;;;8.30;99.90;;;;;;4899099;29;20217;-74
2023/12/17 10:36:21;;;;;;;6.13;2.23;;;8.40;99.90;;;;;;4892311;29;20245;-74
2023/12/17 10:38:49;;;;;;;4.13;1.40;;;8.50;99.90;;;;;;4908645;29;20592;-72
2023/12/17 10:41:19;;;;;;;3.53;1.20;;;8.50;99.90;;;;;;4910201;29;20614;-73
2023/12/17 10:43:48;;;;;;;4.63;1.30;;;8.60;99.90;;;;;;4898498;29;20654;-73
2023/12/17 10:46:17;;;;;;;8.50;1.90;;;8.60;99.90;;;;;;4898212;29;20578;-74
2023/12/17 10:48:45;;;;;;;3.37;1.20;;;8.60;99.90;;;;;;4898295;29;20226;-74
2023/12/17 10:51:13;;;;;;;3.30;1.03;;;8.70;99.90;;;;;;4898400;29;20206;-74
2023/12/17 10:53:41;;;;;;;5.70;1.27;;;8.90;99.90;;;;;;4906604;29;20236;-73
2023/12/17 10:56:09;;;;;;;6.60;1.80;;;8.90;99.90;;;;;;4901657;29;20220;-74
2023/12/17 10:58:36;;;;;;;4.37;1.33;;;8.90;99.90;;;;;;4898321;29;20217;-73
2023/12/17 11:01:04;;;;;;;4.43;1.50;;;8.90;99.90;;;;;;4898360;29;20286;-73
2023/12/17 11:03:32;;;;;;;6.00;1.30;;;8.90;99.90;;;;;;4897664;29;20230;-73
2023/12/17 11:05:59;;;;;;;4.90;1.30;;;9.00;99.90;;;;;;4896505;29;20238;-73
2023/12/17 11:08:28;;;;;;;4.73;1.77;;;9.00;99.90;;;;;;4897545;29;20206;-73
2023/12/17 11:10:58;;;;;;;3.90;1.63;;;9.00;99.90;;;;;;4897720;29;20233;-73
2023/12/17 11:13:25;;;;;;;4.50;1.83;;;9.10;99.90;;;;;;4897087;29;20313;-73
2023/12/17 11:15:53;;;;;;;4.80;1.40;;;9.10;99.90;;;;;;4897267;29;20281;-73
2023/12/17 11:18:23;;;;;;;4.07;1.07;;;9.20;99.90;;;;;;4897347;29;20578;-73
2023/12/17 11:20:52;;;;;;;4.63;1.40;;;9.30;99.90;;;;;;4897766;29;20222;-72
2023/12/17 11:23:19;;;;;;;5.27;1.20;;;9.40;99.90;;;;;;4897208;29;20281;-73
2023/12/17 11:25:47;;;;;;;4.27;1.23;;;9.40;99.90;;;;;;4896447;29;20214;-74
2023/12/17 11:28:23;;;;;;;3.23;1.40;;;9.50;99.90;;;;;;4897846;29;20206;-74
2023/12/17 11:30:51;;;;;;;3.97;1.67;;;9.50;99.90;;;;;;4897372;29;20214;-73
2023/12/17 11:33:18;;;;;;;3.13;1.47;;;9.50;99.90;;;;;;4897321;29;20318;-73
2023/12/17 11:35:46;;;;;;;10.27;2.07;;;9.60;99.90;;;;;;4896792;29;20207;-73
2023/12/17 11:38:13;;;;;;;3.83;1.43;;;9.60;99.90;;;;;;4896475;29;20234;-73
2023/12/17 11:40:40;;;;;;;8.37;2.17;;;9.50;99.90;;;;;;4878656;29;20266;-73
2023/12/17 11:43:07;;;;;;;4.60;1.60;;;9.50;99.90;;;;;;4885440;29;20619;-73
2023/12/17 11:45:43;;;;;;;5.30;1.87;;;9.50;99.90;;;;;;4896857;29;20234;-72
2023/12/17 11:48:12;;;;;;;4.90;1.90;;;9.50;99.90;;;;;;4897076;29;20210;-75
2023/12/17 11:50:45;;;;;;;4.93;1.87;;;9.40;99.90;;;;;;4897309;29;20772;-74
2023/12/17 11:53:13;;;;;;;6.83;2.03;;;9.40;99.90;;;;;;4887758;29;20233;-75
2023/12/17 11:55:47;;;;;;;7.60;1.90;;;9.30;99.90;;;;;;4901579;29;20218;-75
2023/12/17 11:58:17;;;;;;;6.50;2.60;;;9.30;99.90;;;;;;4901618;29;20209;-75
2023/12/17 12:01:03;;;;;;;11.27;2.23;;;9.30;99.90;;;;;;4901038;29;20207;-75
2023/12/17 12:03:31;;;;;;;6.07;2.27;;;9.40;99.90;;;;;;4901335;29;20257;-75
2023/12/17 12:05:59;;;;;;;5.10;1.77;;;9.40;99.90;;;;;;4900596;29;20207;-75
2023/12/17 12:08:26;;;;;;;8.63;1.90;;;9.40;99.90;;;;;;4901343;29;20642;-75
2023/12/17 12:10:53;;;;;;;7.03;2.57;;;9.40;99.90;;;;;;4902179;29;20234;-76
2023/12/17 12:13:20;;;;;;;5.37;1.97;;;9.40;99.90;;;;;;4901144;29;20634;-75
2023/12/17 12:15:48;;;;;;;5.77;2.13;;;9.30;99.90;;;;;;4903941;29;20257;-75
2023/12/17 12:18:21;;;;;;;5.40;2.13;;;9.30;99.90;;;;;;4905162;29;20203;-75
2023/12/17 12:20:50;;;;;;;5.80;2.10;;;9.20;99.90;;;;;;4901733;29;20206;-75
2023/12/17 12:23:17;;;;;;;7.03;2.00;;;9.20;99.90;;;;;;4900649;29;20257;-75
2023/12/17 12:25:44;;;;;;;6.60;2.23;;;9.20;99.90;;;;;;4901057;29;20249;-74
2023/12/17 12:28:17;;;;;;;6.47;1.90;;;9.20;99.90;;;;;;4900431;29;20666;-73
2023/12/17 12:30:44;;;;;;;7.87;1.80;;;9.30;99.90;;;;;;4900724;29;20348;-74
2023/12/17 12:33:14;;;;;;;10.73;1.93;;;9.20;99.90;;;;;;4900799;29;20279;-74
2023/12/17 12:35:41;;;;;;;7.23;1.90;;;9.10;99.90;;;;;;4900879;29;20531;-75
2023/12/17 12:38:21;;;;;;;4.73;1.80;;;9.10;99.90;;;;;;4900429;29;20630;-74
2023/12/17 12:40:49;;;;;;;7.03;2.10;;;9.20;99.90;;;;;;4898923;29;20206;-74
2023/12/17 12:43:17;;;;;;;4.53;1.90;;;9.20;99.90;;;;;;4900011;29;20300;-74
2023/12/17 12:45:45;;;;;;;5.63;2.50;;;9.20;99.90;;;;;;4899893;29;20207;-74
2023/12/17 12:48:21;;;;;;;5.53;1.90;;;9.20;99.90;;;;;;4900148;29;20216;-75
2023/12/17 12:50:48;;;;;;;7.87;3.00;;;9.30;99.90;;;;;;4900462;29;20238;-75
2023/12/17 12:53:18;;;;;;;9.13;2.00;;;9.30;99.90;;;;;;4899731;29;20317;-75
2023/12/17 12:55:45;;;;;;;6.23;1.87;;;9.40;99.90;;;;;;4899462;29;20420;-75
2023/12/17 12:58:12;;;;;;;4.60;1.90;;;9.50;99.90;;;;;;4900690;29;20301;-75
2023/12/17 13:00:42;;;;;;;4.33;1.53;;;9.60;99.90;;;;;;4900597;29;20665;-75
2023/12/17 13:03:09;;;;;;;9.43;2.97;;;9.60;99.90;;;;;;4899487;29;20226;-75
2023/12/17 13:05:38;;;;;;;5.63;1.60;;;9.50;99.90;;;;;;4899183;29;20241;-74
2023/12/17 13:08:05;;;;;;;7.43;2.17;;;9.50;99.90;;;;;;4900024;29;20203;-76
2023/12/17 13:10:32;;;;;;;4.67;1.90;;;9.40;99.90;;;;;;4899709;29;20248;-74
2023/12/17 13:13:00;;;;;;;7.53;2.17;;;9.40;99.90;;;;;;4893164;29;20285;-74
2023/12/17 13:15:27;;;;;;;6.87;1.67;;;9.30;99.90;;;;;;4899551;29;20300;-74
2023/12/17 13:17:54;;;;;;;3.60;1.60;;;9.40;99.90;;;;;;4899542;29;20704;-74
2023/12/17 13:20:21;;;;;;;3.57;1.63;;;9.40;99.90;;;;;;4899904;29;20262;-73
2023/12/17 13:22:50;;;;;;;5.47;1.83;;;9.50;99.90;;;;;;4899774;29;20230;-74
2023/12/17 13:25:17;;;;;;;5.70;2.17;;;9.60;99.90;;;;;;4899801;29;20202;-76
2023/12/17 13:27:44;;;;;;;3.77;1.97;;;9.60;99.90;;;;;;4898878;29;20199;-75
2023/12/17 13:30:12;;;;;;;5.27;1.73;;;9.60;99.90;;;;;;4899397;29;20578;-75
2023/12/17 13:32:40;;;;;;;7.47;2.60;;;9.60;99.90;;;;;;4898771;29;20265;-74
2023/12/17 13:35:09;;;;;;;5.67;1.70;;;9.50;99.90;;;;;;4899457;29;20210;-73
2023/12/17 13:37:37;;;;;;;3.83;1.40;;;9.50;99.90;;;;;;4899463;29;20211;-74
2023/12/17 13:40:07;;;;;;;6.13;2.03;;;9.40;99.90;;;;;;4899772;29;20297;-74
2023/12/17 13:42:34;;;;;;;4.13;1.43;;;9.40;99.90;;;;;;4899371;29;20693;-74
2023/12/17 13:45:02;;;;;;;7.47;1.60;;;9.40;99.90;;;;;;4899888;29;20270;-75
2023/12/17 13:47:29;;;;;;;4.40;2.33;;;9.40;99.90;;;;;;4900555;29;20685;-75
2023/12/17 13:49:56;;;;;;;4.47;1.30;;;9.40;99.90;;;;;;4899615;29;20273;-75
2023/12/17 13:52:23;;;;;;;4.07;1.40;;;9.40;99.90;;;;;;4894920;29;20253;-73
2023/12/17 13:54:50;;;;;;;5.63;1.63;;;9.40;99.90;;;;;;4900243;29;20245;-73
2023/12/17 13:57:18;;;;;;;3.80;1.63;;;9.40;99.90;;;;;;4899118;29;20714;-71
2023/12/17 13:59:47;;;;;;;5.83;1.30;;;9.30;99.90;;;;;;4914690;29;20266;-72
2023/12/17 14:02:14;;;;;;;4.03;1.63;;;9.40;99.90;;;;;;4915188;29;20234;-72
2023/12/17 14:04:41;;;;;;;4.33;1.43;;;9.40;99.90;;;;;;4902793;29;20249;-73
2023/12/17 14:07:08;;;;;;;4.83;1.93;;;9.30;99.90;;;;;;4904088;29;20603;-74
2023/12/17 14:09:36;;;;;;;6.47;1.30;;;9.30;99.90;;;;;;4899306;29;20238;-73
2023/12/17 14:12:04;;;;;;;2.73;1.37;;;9.30;99.90;;;;;;4912350;29;20237;-74
2023/12/17 14:14:34;;;;;;;4.73;1.30;;;9.30;99.90;;;;;;4900071;29;20218;-75
2023/12/17 14:17:01;;;;;;;3.90;1.03;;;9.40;99.90;;;;;;4898278;29;20214;-72
2023/12/17 14:19:29;;;;;;;2.23;1.10;;;9.40;99.90;;;;;;4900452;29;20210;-72
2023/12/17 14:21:56;;;;;;;2.93;1.20;;;9.40;99.90;;;;;;4898769;29;20234;-72
2023/12/17 14:24:23;;;;;;;2.67;1.30;;;9.30;99.90;;;;;;4899470;29;20658;-73
2023/12/17 14:26:50;;;;;;;6.93;1.97;;;9.30;99.90;;;;;;4899149;29;20623;-71
2023/12/17 14:29:17;;;;;;;4.70;1.27;;;9.30;99.90;;;;;;4898760;29;20255;-70
2023/12/17 14:31:46;;;;;;;4.47;1.13;;;9.30;99.90;;;;;;4899021;29;20301;-71
2023/12/17 14:34:13;;;;;;;4.63;1.30;;;9.30;99.90;;;;;;4880612;29;20218;-74
2023/12/17 14:36:40;;;;;;;3.40;1.00;;;9.30;99.90;;;;;;4880307;29;20274;-73
2023/12/17 14:39:07;;;;;;;3.70;1.50;;;9.30;99.90;;;;;;4898450;29;20218;-73
2023/12/17 14:41:34;;;;;;;5.33;0.97;;;9.30;99.90;;;;;;4898895;29;20230;-71
2023/12/17 14:44:01;;;;;;;6.70;1.30;;;9.40;99.90;;;;;;4898415;29;20305;-70
2023/12/17 14:46:28;;;;;;;3.57;1.37;;;9.40;99.90;;;;;;4898618;29;20221;-73
2023/12/17 14:48:56;;;;;;;6.07;1.50;;;9.40;99.90;;;;;;4901013;29;20210;-71
2023/12/17 14:51:23;;;;;;;2.97;1.10;;;9.40;99.90;;;;;;4899180;29;20243;-72
2023/12/17 14:53:50;;;;;;;2.47;1.17;;;9.30;99.90;;;;;;4898267;29;20211;-71
2023/12/17 14:56:18;;;;;;;3.30;1.17;;;9.20;99.90;;;;;;4898101;29;20590;-73
2023/12/17 14:58:45;;;;;;;4.00;1.13;;;9.10;99.90;;;;;;4898051;29;20218;-72
2023/12/17 15:01:12;;;;;;;2.50;1.20;;;9.10;99.90;;;;;;4898033;29;20266;-74
2023/12/17 15:03:39;;;;;;;2.53;1.13;;;9.10;99.90;;;;;;4898018;29;20214;-72
2023/12/17 15:06:08;;;;;;;2.73;1.17;;;9.00;99.90;;;;;;4898308;29;20548;-72
2023/12/17 15:08:35;;;;;;;6.03;1.60;;;9.00;99.90;;;;;;4898033;29;20214;-71
